sensor_id;sensor_type;location;lat;lon;timestamp;pressure;altitude;pressure_sealevel;temperature;humidity
69171;BME280;56279;47.902;12.308;2023-08-12T00:00:32;95844.75;;;17.52;88.77
69171;BME280;56279;47.902;12.308;2023-08-12T00:02:34;95844.75;;;17.52;88.92
69171;BME280;56279;47.902;12.308;2023-08-12T00:04:35;95846.63;;;17.52;89.02
69171;BME280;56279;47.902;12.308;2023-08-12T00:06:36;95841.28;;;17.52;89.18
69171;BME280;56279;47.902;12.308;2023-08-12T00:08:38;95840.50;;;17.51;89.22
69171;BME280;56279;47.902;12.308;2023-08-12T00:10:39;95842.34;;;17.51;89.30
69171;BME280;56279;47.902;12.308;2023-08-12T00:12:41;95839.19;;;17.49;89.22
69171;BME280;56279;47.902;12.308;2023-08-12T00:14:42;95831.19;;;17.49;89.53
69171;BME280;56279;47.902;12.308;2023-08-12T00:16:43;95842.19;;;17.47;89.52
69171;BME280;56279;47.902;12.308;2023-08-12T00:18:45;95836.03;;;17.47;89.74
69171;BME280;56279;47.902;12.308;2023-08-12T00:20:46;95826.44;;;17.46;89.97
69171;BME280;56279;47.902;12.308;2023-08-12T00:22:47;95820.34;;;17.45;89.89
69171;BME280;56279;47.902;12.308;2023-08-12T00:24:49;95825.22;;;17.43;89.87
69171;BME280;56279;47.902;12.308;2023-08-12T00:26:50;95834.28;;;17.42;90.03
69171;BME280;56279;47.902;12.308;2023-08-12T00:28:52;95823.16;;;17.40;89.98
69171;BME280;56279;47.902;12.308;2023-08-12T00:30:53;95815.44;;;17.39;89.96
69171;BME280;56279;47.902;12.308;2023-08-12T00:32:54;95823.44;;;17.39;90.21
69171;BME280;56279;47.902;12.308;2023-08-12T00:34:56;95816.84;;;17.36;90.15
69171;BME280;56279;47.902;12.308;2023-08-12T00:36:57;95819.81;;;17.35;90.37
69171;BME280;56279;47.902;12.308;2023-08-12T00:38:58;95814.00;;;17.33;90.57
69171;BME280;56279;47.902;12.308;2023-08-12T00:41:00;95816.50;;;17.29;90.64
69171;BME280;56279;47.902;12.308;2023-08-12T00:43:01;95812.84;;;17.25;90.56
69171;BME280;56279;47.902;12.308;2023-08-12T00:45:03;95806.56;;;17.21;91.18
69171;BME280;56279;47.902;12.308;2023-08-12T00:47:06;95804.22;;;17.19;91.22
69171;BME280;56279;47.902;12.308;2023-08-12T00:49:09;95801.56;;;17.19;91.00
69171;BME280;56279;47.902;12.308;2023-08-12T00:51:11;95800.75;;;17.19;91.33
69171;BME280;56279;47.902;12.308;2023-08-12T00:53:12;95800.75;;;17.19;91.47
69171;BME280;56279;47.902;12.308;2023-08-12T00:55:14;95795.41;;;17.19;91.65
69171;BME280;56279;47.902;12.308;2023-08-12T00:57:16;95797.28;;;17.18;91.65
69171;BME280;56279;47.902;12.308;2023-08-12T00:59:19;95800.75;;;17.19;91.61
69171;BME280;56279;47.902;12.308;2023-08-12T01:01:22;95799.97;;;17.18;91.60
69171;BME280;56279;47.902;12.308;2023-08-12T01:03:23;95795.41;;;17.19;91.57
69171;BME280;56279;47.902;12.308;2023-08-12T01:05:24;95791.47;;;17.16;91.88
69171;BME280;56279;47.902;12.308;2023-08-12T01:07:26;95790.22;;;17.14;91.97
69171;BME280;56279;47.902;12.308;2023-08-12T01:09:27;95796.47;;;17.09;92.02
69171;BME280;56279;47.902;12.308;2023-08-12T01:11:36;95798.97;;;17.06;92.06
69171;BME280;56279;47.902;12.308;2023-08-12T01:16:13;95798.91;;;16.97;92.16
69171;BME280;56279;47.902;12.308;2023-08-12T01:18:18;95791.50;;;16.94;92.55
69171;BME280;56279;47.902;12.308;2023-08-12T01:20:23;95795.09;;;16.90;92.50
69171;BME280;56279;47.902;12.308;2023-08-12T01:22:28;95791.94;;;16.88;93.00
69171;BME280;56279;47.902;12.308;2023-08-12T01:24:35;95785.34;;;16.85;92.92
69171;BME280;56279;47.902;12.308;2023-08-12T01:26:38;95787.25;;;16.85;93.13
69171;BME280;56279;47.902;12.308;2023-08-12T01:28:40;95782.19;;;16.83;93.07
69171;BME280;56279;47.902;12.308;2023-08-12T01:30:56;95790.50;;;16.82;92.76
69171;BME280;56279;47.902;12.308;2023-08-12T01:35:21;95783.22;;;16.74;92.80
69171;BME280;56279;47.902;12.308;2023-08-12T01:37:28;95778.53;;;16.71;93.17
69171;BME280;56279;47.902;12.308;2023-08-12T01:39:31;95783.06;;;16.70;93.33
69171;BME280;56279;47.902;12.308;2023-08-12T01:41:33;95774.28;;;16.70;93.43
69171;BME280;56279;47.902;12.308;2023-08-12T01:43:36;95781.00;;;16.67;93.43
69171;BME280;56279;47.902;12.308;2023-08-12T01:45:38;95775.97;;;16.66;93.54
69171;BME280;56279;47.902;12.308;2023-08-12T01:47:43;95775.78;;;16.62;93.56
69171;BME280;56279;47.902;12.308;2023-08-12T01:49:44;95788.94;;;16.58;93.67
69171;BME280;56279;47.902;12.308;2023-08-12T01:51:46;95784.19;;;16.55;93.91
69171;BME280;56279;47.902;12.308;2023-08-12T01:53:47;95785.59;;;16.53;94.09
69171;BME280;56279;47.902;12.308;2023-08-12T01:55:49;95776.59;;;16.49;94.12
69171;BME280;56279;47.902;12.308;2023-08-12T01:57:50;95774.25;;;16.47;94.30
69171;BME280;56279;47.902;12.308;2023-08-12T01:59:52;95774.84;;;16.44;94.41
69171;BME280;56279;47.902;12.308;2023-08-12T02:01:53;95770.59;;;16.43;94.56
69171;BME280;56279;47.902;12.308;2023-08-12T02:03:55;95778.09;;;16.41;94.77
69171;BME280;56279;47.902;12.308;2023-08-12T02:05:56;95771.22;;;16.40;94.71
69171;BME280;56279;47.902;12.308;2023-08-12T02:07:57;95776.03;;;16.38;94.72
69171;BME280;56279;47.902;12.308;2023-08-12T02:09:59;95779.31;;;16.35;94.84
69171;BME280;56279;47.902;12.308;2023-08-12T02:12:01;95776.47;;;16.32;94.81
69171;BME280;56279;47.902;12.308;2023-08-12T02:14:03;95776.78;;;16.30;95.24
69171;BME280;56279;47.902;12.308;2023-08-12T02:16:04;95773.63;;;16.28;95.12
69171;BME280;56279;47.902;12.308;2023-08-12T02:18:07;95772.34;;;16.26;95.41
69171;BME280;56279;47.902;12.308;2023-08-12T02:20:09;95772.34;;;16.26;95.62
69171;BME280;56279;47.902;12.308;2023-08-12T02:22:11;95767.03;;;16.26;95.75
69171;BME280;56279;47.902;12.308;2023-08-12T02:24:12;95763.25;;;16.27;96.19
69171;BME280;56279;47.902;12.308;2023-08-12T02:26:13;95761.09;;;16.29;96.36
69171;BME280;56279;47.902;12.308;2023-08-12T02:28:15;95768.47;;;16.32;96.25
69171;BME280;56279;47.902;12.308;2023-08-12T02:30:16;95766.00;;;16.35;96.21
69171;BME280;56279;47.902;12.308;2023-08-12T02:32:17;95760.06;;;16.38;96.21
69171;BME280;56279;47.902;12.308;2023-08-12T02:34:20;95763.22;;;16.40;96.06
69171;BME280;56279;47.902;12.308;2023-08-12T02:36:22;95754.94;;;16.42;95.96
69171;BME280;56279;47.902;12.308;2023-08-12T02:38:23;95754.13;;;16.41;95.84
69171;BME280;56279;47.902;12.308;2023-08-12T02:40:25;95755.72;;;16.42;95.59
69171;BME280;56279;47.902;12.308;2023-08-12T02:42:27;95756.78;;;16.41;95.66
69171;BME280;56279;47.902;12.308;2023-08-12T02:44:28;95757.38;;;16.38;95.80
69171;BME280;56279;47.902;12.308;2023-08-12T02:46:29;95758.81;;;16.36;95.59
69171;BME280;56279;47.902;12.308;2023-08-12T02:48:31;95758.31;;;16.34;95.65
69171;BME280;56279;47.902;12.308;2023-08-12T02:50:32;95753.13;;;16.29;95.81
69171;BME280;56279;47.902;12.308;2023-08-12T02:52:33;95748.38;;;16.26;96.06
69171;BME280;56279;47.902;12.308;2023-08-12T02:54:34;95746.00;;;16.24;95.88
69171;BME280;56279;47.902;12.308;2023-08-12T02:56:36;95741.28;;;16.21;96.02
69171;BME280;56279;47.902;12.308;2023-08-12T02:58:37;95738.63;;;16.21;95.95
69171;BME280;56279;47.902;12.308;2023-08-12T03:00:42;95735.19;;;16.21;95.79
69171;BME280;56279;47.902;12.308;2023-08-12T03:02:46;95738.63;;;16.21;95.67
69171;BME280;56279;47.902;12.308;2023-08-12T03:04:48;95737.03;;;16.20;95.65
69171;BME280;56279;47.902;12.308;2023-08-12T03:06:49;95732.81;;;16.19;95.48
69171;BME280;56279;47.902;12.308;2023-08-12T03:08:51;95738.75;;;16.16;95.52
69171;BME280;56279;47.902;12.308;2023-08-12T03:10:59;95731.34;;;16.13;95.43
69171;BME280;56279;47.902;12.308;2023-08-12T03:13:01;95738.06;;;16.11;95.43
69171;BME280;56279;47.902;12.308;2023-08-12T03:15:04;95735.50;;;16.06;95.42
69171;BME280;56279;47.902;12.308;2023-08-12T03:17:07;95738.78;;;16.03;95.55
69171;BME280;56279;47.902;12.308;2023-08-12T03:19:10;95732.47;;;15.99;95.40
69171;BME280;56279;47.902;12.308;2023-08-12T03:21:12;95729.63;;;15.95;95.55
69171;BME280;56279;47.902;12.308;2023-08-12T03:23:14;95729.47;;;15.92;95.90
69171;BME280;56279;47.902;12.308;2023-08-12T03:25:17;95727.88;;;15.90;95.78
69171;BME280;56279;47.902;12.308;2023-08-12T03:27:20;95729.75;;;15.90;95.91
69171;BME280;56279;47.902;12.308;2023-08-12T03:29:22;95724.72;;;15.88;95.85
69171;BME280;56279;47.902;12.308;2023-08-12T03:31:23;95722.06;;;15.88;95.76
69171;BME280;56279;47.902;12.308;2023-08-12T03:33:27;95716.25;;;15.86;95.64
69171;BME280;56279;47.902;12.308;2023-08-12T03:35:30;95710.44;;;15.84;95.80
69171;BME280;56279;47.902;12.308;2023-08-12T03:37:31;95719.81;;;15.82;95.75
69171;BME280;56279;47.902;12.308;2023-08-12T03:39:33;95716.97;;;15.78;95.78
69171;BME280;56279;47.902;12.308;2023-08-12T03:41:36;95718.66;;;15.74;95.84
69171;BME280;56279;47.902;12.308;2023-08-12T03:43:40;95726.16;;;15.72;96.03
69171;BME280;56279;47.902;12.308;2023-08-12T03:45:42;95722.22;;;15.70;96.05
69171;BME280;56279;47.902;12.308;2023-08-12T03:47:46;95719.81;;;15.68;96.16
69171;BME280;56279;47.902;12.308;2023-08-12T03:49:47;95724.38;;;15.68;96.23
69171;BME280;56279;47.902;12.308;2023-08-12T03:51:49;95724.66;;;15.66;96.08
69171;BME280;56279;47.902;12.308;2023-08-12T03:53:50;95714.31;;;15.65;96.22
69171;BME280;56279;47.902;12.308;2023-08-12T03:55:52;95712.75;;;15.64;96.31
69171;BME280;56279;47.902;12.308;2023-08-12T03:57:54;95710.38;;;15.62;96.52
69171;BME280;56279;47.902;12.308;2023-08-12T03:59:56;95707.25;;;15.60;96.61
69171;BME280;56279;47.902;12.308;2023-08-12T04:01:57;95709.41;;;15.58;96.61
69171;BME280;56279;47.902;12.308;2023-08-12T04:03:59;95711.28;;;15.58;96.66
69171;BME280;56279;47.902;12.308;2023-08-12T04:06:00;95709.41;;;15.58;96.65
69171;BME280;56279;47.902;12.308;2023-08-12T04:08:03;95713.16;;;15.57;96.64
69171;BME280;56279;47.902;12.308;2023-08-12T04:10:05;95707.03;;;15.57;96.66
69171;BME280;56279;47.902;12.308;2023-08-12T04:12:06;95709.09;;;15.60;96.67
69171;BME280;56279;47.902;12.308;2023-08-12T04:14:07;95706.66;;;15.63;96.70
69171;BME280;56279;47.902;12.308;2023-08-12T04:16:09;95706.53;;;15.68;96.51
69171;BME280;56279;47.902;12.308;2023-08-12T04:18:11;95710.66;;;15.74;96.13
69171;BME280;56279;47.902;12.308;2023-08-12T04:20:13;95707.09;;;15.79;95.97
69171;BME280;56279;47.902;12.308;2023-08-12T04:22:14;95705.91;;;15.85;95.67
69171;BME280;56279;47.902;12.308;2023-08-12T04:24:16;95708.75;;;15.88;95.56
69171;BME280;56279;47.902;12.308;2023-08-12T04:26:17;95704.41;;;15.93;95.37
69171;BME280;56279;47.902;12.308;2023-08-12T04:28:19;95711.47;;;15.97;95.43
69171;BME280;56279;47.902;12.308;2023-08-12T04:30:20;95710.88;;;16.00;95.32
69171;BME280;56279;47.902;12.308;2023-08-12T04:32:22;95714.03;;;16.02;95.18
69171;BME280;56279;47.902;12.308;2023-08-12T04:34:24;95708.72;;;16.02;95.11
69171;BME280;56279;47.902;12.308;2023-08-12T04:36:27;95712.16;;;16.03;94.98
69171;BME280;56279;47.902;12.308;2023-08-12T04:38:29;95706.53;;;16.04;94.89
69171;BME280;56279;47.902;12.308;2023-08-12T04:40:34;95711.06;;;16.04;95.11
69171;BME280;56279;47.902;12.308;2023-08-12T04:42:35;95710.78;;;16.05;95.16
69171;BME280;56279;47.902;12.308;2023-08-12T04:44:38;95699.03;;;16.06;95.11
69171;BME280;56279;47.902;12.308;2023-08-12T04:46:40;95705.63;;;16.09;95.14
69171;BME280;56279;47.902;12.308;2023-08-12T04:48:41;95711.16;;;16.12;95.04
69171;BME280;56279;47.902;12.308;2023-08-12T04:50:43;95711.63;;;16.14;94.92
69171;BME280;56279;47.902;12.308;2023-08-12T04:52:44;95711.03;;;16.17;94.74
69171;BME280;56279;47.902;12.308;2023-08-12T04:54:47;95714.19;;;16.19;94.52
69171;BME280;56279;47.902;12.308;2023-08-12T04:56:48;95709.34;;;16.21;94.30
69171;BME280;56279;47.902;12.308;2023-08-12T04:58:50;95713.56;;;16.22;94.10
69171;BME280;56279;47.902;12.308;2023-08-12T05:00:51;95719.38;;;16.24;93.96
69171;BME280;56279;47.902;12.308;2023-08-12T05:02:56;95716.69;;;16.24;93.66
69171;BME280;56279;47.902;12.308;2023-08-12T05:04:59;95716.41;;;16.26;93.64
69171;BME280;56279;47.902;12.308;2023-08-12T05:07:02;95722.22;;;16.28;93.75
69171;BME280;56279;47.902;12.308;2023-08-12T05:09:03;95711.56;;;16.28;93.69
69171;BME280;56279;47.902;12.308;2023-08-12T05:11:06;95713.91;;;16.29;93.82
69171;BME280;56279;47.902;12.308;2023-08-12T05:13:07;95717.84;;;16.32;93.89
69171;BME280;56279;47.902;12.308;2023-08-12T05:15:10;95724.94;;;16.36;93.78
69171;BME280;56279;47.902;12.308;2023-08-12T05:17:11;95718.69;;;16.41;93.53
69171;BME280;56279;47.902;12.308;2023-08-12T05:19:13;95724.50;;;16.43;93.16
69171;BME280;56279;47.902;12.308;2023-08-12T05:21:14;95726.28;;;16.47;92.89
69171;BME280;56279;47.902;12.308;2023-08-12T05:23:16;95725.97;;;16.49;93.13
69171;BME280;56279;47.902;12.308;2023-08-12T05:25:18;95726.50;;;16.51;92.94
69171;BME280;56279;47.902;12.308;2023-08-12T05:27:19;95720.34;;;16.50;92.97
69171;BME280;56279;47.902;12.308;2023-08-12T05:29:20;95726.19;;;16.52;93.01
69171;BME280;56279;47.902;12.308;2023-08-12T05:31:22;95720.72;;;16.57;92.50
69171;BME280;56279;47.902;12.308;2023-08-12T05:33:23;95723.28;;;16.63;92.03
69171;BME280;56279;47.902;12.308;2023-08-12T05:35:25;95723.16;;;16.68;91.82
69171;BME280;56279;47.902;12.308;2023-08-12T05:37:26;95717.97;;;16.71;91.68
69171;BME280;56279;47.902;12.308;2023-08-12T05:39:27;95717.06;;;16.76;91.74
69171;BME280;56279;47.902;12.308;2023-08-12T05:41:29;95723.84;;;16.82;91.12
69171;BME280;56279;47.902;12.308;2023-08-12T05:43:31;95719.94;;;16.88;91.09
69171;BME280;56279;47.902;12.308;2023-08-12T05:45:32;95725.16;;;16.93;91.03
69171;BME280;56279;47.902;12.308;2023-08-12T05:47:33;95724.25;;;16.97;90.99
69171;BME280;56279;47.902;12.308;2023-08-12T05:49:35;95720.97;;;17.00;91.03
69171;BME280;56279;47.902;12.308;2023-08-12T05:51:36;95729.63;;;17.06;90.95
69171;BME280;56279;47.902;12.308;2023-08-12T05:53:39;95725.41;;;17.13;90.39
69171;BME280;56279;47.902;12.308;2023-08-12T05:55:40;95731.56;;;17.22;90.07
69171;BME280;56279;47.902;12.308;2023-08-12T05:57:41;95727.06;;;17.32;89.48
69171;BME280;56279;47.902;12.308;2023-08-12T05:59:43;95725.03;;;17.37;89.55
69171;BME280;56279;47.902;12.308;2023-08-12T06:01:44;95732.91;;;17.42;89.33
69171;BME280;56279;47.902;12.308;2023-08-12T06:03:45;95732.75;;;17.47;88.93
69171;BME280;56279;47.902;12.308;2023-08-12T06:05:47;95734.53;;;17.52;88.93
69171;BME280;56279;47.902;12.308;2023-08-12T06:07:48;95730.13;;;17.56;88.82
69171;BME280;56279;47.902;12.308;2023-08-12T06:09:50;95727.31;;;17.61;88.79
69171;BME280;56279;47.902;12.308;2023-08-12T06:11:51;95727.38;;;17.78;88.33
69171;BME280;56279;47.902;12.308;2023-08-12T06:13:53;95728.00;;;18.09;86.99
69171;BME280;56279;47.902;12.308;2023-08-12T06:15:54;95727.06;;;18.31;86.06
69171;BME280;56279;47.902;12.308;2023-08-12T06:17:55;95721.88;;;18.43;85.82
69171;BME280;56279;47.902;12.308;2023-08-12T06:19:57;95720.81;;;18.52;85.30
69171;BME280;56279;47.902;12.308;2023-08-12T06:21:58;95716.84;;;18.58;84.73
69171;BME280;56279;47.902;12.308;2023-08-12T06:24:00;95724.88;;;18.58;84.51
69171;BME280;56279;47.902;12.308;2023-08-12T06:26:01;95724.06;;;18.58;85.00
69171;BME280;56279;47.902;12.308;2023-08-12T06:28:02;95727.09;;;18.56;85.42
69171;BME280;56279;47.902;12.308;2023-08-12T06:30:06;95720.81;;;18.52;85.54
69171;BME280;56279;47.902;12.308;2023-08-12T06:32:07;95720.94;;;18.56;85.21
69171;BME280;56279;47.902;12.308;2023-08-12T06:34:08;95721.09;;;18.59;85.27
69171;BME280;56279;47.902;12.308;2023-08-12T06:36:10;95726.75;;;18.58;84.78
69171;BME280;56279;47.902;12.308;2023-08-12T06:38:12;95715.13;;;18.54;85.23
69171;BME280;56279;47.902;12.308;2023-08-12T06:40:16;95710.88;;;18.53;85.08
69171;BME280;56279;47.902;12.308;2023-08-12T06:42:17;95713.25;;;18.54;85.09
69171;BME280;56279;47.902;12.308;2023-08-12T06:44:19;95716.38;;;18.56;85.18
69171;BME280;56279;47.902;12.308;2023-08-12T06:46:20;95717.97;;;18.57;84.87
69171;BME280;56279;47.902;12.308;2023-08-12T06:48:22;95713.09;;;18.59;85.50
69171;BME280;56279;47.902;12.308;2023-08-12T06:50:23;95722.03;;;18.63;85.18
69171;BME280;56279;47.902;12.308;2023-08-12T06:52:24;95719.19;;;18.69;85.21
69171;BME280;56279;47.902;12.308;2023-08-12T06:54:26;95718.25;;;18.73;85.13
69171;BME280;56279;47.902;12.308;2023-08-12T06:56:27;95716.03;;;18.75;85.07
69171;BME280;56279;47.902;12.308;2023-08-12T06:58:28;95715.88;;;18.80;85.26
69171;BME280;56279;47.902;12.308;2023-08-12T07:00:30;95710.34;;;18.85;85.42
69171;BME280;56279;47.902;12.308;2023-08-12T07:02:31;95715.53;;;18.90;85.25
69171;BME280;56279;47.902;12.308;2023-08-12T07:04:33;95715.66;;;18.94;84.92
69171;BME280;56279;47.902;12.308;2023-08-12T07:06:34;95716.91;;;18.96;84.68
69171;BME280;56279;47.902;12.308;2023-08-12T07:08:35;95713.28;;;19.01;84.72
69171;BME280;56279;47.902;12.308;2023-08-12T07:10:40;95712.31;;;19.05;84.39
69171;BME280;56279;47.902;12.308;2023-08-12T07:12:42;95713.72;;;19.11;84.49
69171;BME280;56279;47.902;12.308;2023-08-12T07:14:43;95712.78;;;19.16;84.26
69171;BME280;56279;47.902;12.308;2023-08-12T07:16:44;95711.00;;;19.20;84.46
69171;BME280;56279;47.902;12.308;2023-08-12T07:18:46;95711.16;;;19.23;85.03
69171;BME280;56279;47.902;12.308;2023-08-12T07:20:47;95707.84;;;19.26;85.12
69171;BME280;56279;47.902;12.308;2023-08-12T07:22:48;95707.66;;;19.31;85.08
69171;BME280;56279;47.902;12.308;2023-08-12T07:24:50;95705.28;;;19.39;84.88
69171;BME280;56279;47.902;12.308;2023-08-12T07:26:53;95705.13;;;19.44;84.86
69171;BME280;56279;47.902;12.308;2023-08-12T07:28:56;95703.34;;;19.48;84.93
69171;BME280;56279;47.902;12.308;2023-08-12T07:31:00;95704.25;;;19.52;84.93
69171;BME280;56279;47.902;12.308;2023-08-12T07:33:02;95711.78;;;19.58;84.92
69171;BME280;56279;47.902;12.308;2023-08-12T07:35:04;95702.47;;;19.64;84.97
69171;BME280;56279;47.902;12.308;2023-08-12T07:37:06;95694.38;;;19.73;84.11
69171;BME280;56279;47.902;12.308;2023-08-12T07:39:08;95706.94;;;19.81;84.17
69171;BME280;56279;47.902;12.308;2023-08-12T07:41:09;95704.84;;;19.86;83.48
69171;BME280;56279;47.902;12.308;2023-08-12T07:43:10;95703.56;;;19.92;83.01
69171;BME280;56279;47.902;12.308;2023-08-12T07:45:12;95699.03;;;20.05;82.90
69171;BME280;56279;47.902;12.308;2023-08-12T07:47:13;95703.66;;;20.17;81.64
69171;BME280;56279;47.902;12.308;2023-08-12T07:49:16;95705.19;;;20.26;80.66
69171;BME280;56279;47.902;12.308;2023-08-12T07:51:17;95699.00;;;20.34;80.18
69171;BME280;56279;47.902;12.308;2023-08-12T07:53:18;95699.25;;;20.41;80.18
69171;BME280;56279;47.902;12.308;2023-08-12T07:55:20;95701.72;;;20.46;79.84
69171;BME280;56279;47.902;12.308;2023-08-12T07:57:21;95699.94;;;20.50;79.67
69171;BME280;56279;47.902;12.308;2023-08-12T07:59:25;95707.44;;;20.57;79.34
69171;BME280;56279;47.902;12.308;2023-08-12T08:01:26;95701.09;;;20.61;79.43
69171;BME280;56279;47.902;12.308;2023-08-12T08:03:28;95702.56;;;20.71;78.54
69171;BME280;56279;47.902;12.308;2023-08-12T08:05:29;95712.44;;;20.79;78.28
69171;BME280;56279;47.902;12.308;2023-08-12T08:07:30;95706.97;;;20.88;77.46
69171;BME280;56279;47.902;12.308;2023-08-12T08:09:33;95699.50;;;20.93;77.30
69171;BME280;56279;47.902;12.308;2023-08-12T08:11:34;95699.06;;;21.03;76.95
69171;BME280;56279;47.902;12.308;2023-08-12T08:13:36;95696.97;;;21.09;76.87
69171;BME280;56279;47.902;12.308;2023-08-12T08:15:37;95695.19;;;21.13;76.84
69171;BME280;56279;47.902;12.308;2023-08-12T08:17:38;95688.94;;;21.21;76.33
69171;BME280;56279;47.902;12.308;2023-08-12T08:19:40;95690.72;;;21.29;75.98
69171;BME280;56279;47.902;12.308;2023-08-12T08:21:42;95681.66;;;21.33;75.96
69171;BME280;56279;47.902;12.308;2023-08-12T08:23:43;95682.81;;;21.45;76.14
69171;BME280;56279;47.902;12.308;2023-08-12T08:25:45;95685.00;;;21.55;75.63
69171;BME280;56279;47.902;12.308;2023-08-12T08:27:47;95682.66;;;21.65;75.19
69171;BME280;56279;47.902;12.308;2023-08-12T08:29:48;95683.63;;;21.73;74.85
69171;BME280;56279;47.902;12.308;2023-08-12T08:31:50;95684.56;;;21.77;75.36
69171;BME280;56279;47.902;12.308;2023-08-12T08:33:51;95679.84;;;21.86;75.02
69171;BME280;56279;47.902;12.308;2023-08-12T08:35:55;95676.59;;;21.92;75.16
69171;BME280;56279;47.902;12.308;2023-08-12T08:37:57;95680.72;;;22.02;74.74
69171;BME280;56279;47.902;12.308;2023-08-12T08:39:58;95683.97;;;22.08;74.88
69171;BME280;56279;47.902;12.308;2023-08-12T08:42:00;95688.41;;;22.16;75.18
69171;BME280;56279;47.902;12.308;2023-08-12T08:44:02;95680.97;;;22.25;75.00
69171;BME280;56279;47.902;12.308;2023-08-12T08:46:08;95682.84;;;22.36;74.74
69171;BME280;56279;47.902;12.308;2023-08-12T08:48:11;95684.25;;;22.46;74.62
69171;BME280;56279;47.902;12.308;2023-08-12T08:50:13;95683.75;;;22.56;74.14
69171;BME280;56279;47.902;12.308;2023-08-12T08:52:16;95693.72;;;22.67;73.70
69171;BME280;56279;47.902;12.308;2023-08-12T08:54:21;95690.25;;;22.83;73.41
69171;BME280;56279;47.902;12.308;2023-08-12T08:56:23;95686.88;;;23.01;72.48
69171;BME280;56279;47.902;12.308;2023-08-12T08:58:24;95695.44;;;23.19;71.41
69171;BME280;56279;47.902;12.308;2023-08-12T09:00:26;95687.38;;;23.34;70.28
69171;BME280;56279;47.902;12.308;2023-08-12T09:02:29;95692.72;;;23.50;69.78
69171;BME280;56279;47.902;12.308;2023-08-12T09:04:31;95691.56;;;23.67;67.96
69171;BME280;56279;47.902;12.308;2023-08-12T09:06:33;95693.53;;;23.85;67.25
69171;BME280;56279;47.902;12.308;2023-08-12T09:08:37;95702.31;;;23.98;65.67
69171;BME280;56279;47.902;12.308;2023-08-12T09:10:40;95701.00;;;24.08;65.72
69171;BME280;56279;47.902;12.308;2023-08-12T09:12:43;95701.22;;;24.18;65.14
69171;BME280;56279;47.902;12.308;2023-08-12T09:14:45;95700.94;;;24.23;64.81
69171;BME280;56279;47.902;12.308;2023-08-12T09:16:47;95703.88;;;24.34;64.21
69171;BME280;56279;47.902;12.308;2023-08-12T09:18:55;95697.53;;;24.45;64.71
69171;BME280;56279;47.902;12.308;2023-08-12T09:20:56;95696.66;;;24.60;63.56
69171;BME280;56279;47.902;12.308;2023-08-12T09:22:58;95699.59;;;24.71;63.77
69171;BME280;56279;47.902;12.308;2023-08-12T09:25:00;95698.09;;;24.73;63.12
69171;BME280;56279;47.902;12.308;2023-08-12T09:27:03;95699.81;;;24.82;63.20
69171;BME280;56279;47.902;12.308;2023-08-12T09:29:05;95705.03;;;24.94;63.02
69171;BME280;56279;47.902;12.308;2023-08-12T09:31:06;95701.03;;;25.07;63.15
69171;BME280;56279;47.902;12.308;2023-08-12T09:33:08;95707.81;;;25.20;61.50
69171;BME280;56279;47.902;12.308;2023-08-12T09:35:15;95704.16;;;25.31;60.41
69171;BME280;56279;47.902;12.308;2023-08-12T09:37:18;95696.09;;;25.35;60.87
69171;BME280;56279;47.902;12.308;2023-08-12T09:39:19;95695.38;;;25.38;60.58
69171;BME280;56279;47.902;12.308;2023-08-12T09:41:22;95697.09;;;25.46;60.67
69171;BME280;56279;47.902;12.308;2023-08-12T09:43:27;95697.22;;;25.53;61.31
69171;BME280;56279;47.902;12.308;2023-08-12T09:45:31;95697.28;;;25.60;61.17
69171;BME280;56279;47.902;12.308;2023-08-12T09:47:33;95688.63;;;25.74;60.78
69171;BME280;56279;47.902;12.308;2023-08-12T09:49:35;95695.75;;;25.85;60.85
69171;BME280;56279;47.902;12.308;2023-08-12T09:51:37;95695.19;;;25.99;61.39
69171;BME280;56279;47.902;12.308;2023-08-12T09:53:41;95692.69;;;26.13;60.98
69171;BME280;56279;47.902;12.308;2023-08-12T09:55:43;95691.69;;;26.25;61.03
69171;BME280;56279;47.902;12.308;2023-08-12T09:57:52;95688.34;;;26.35;60.52
69171;BME280;56279;47.902;12.308;2023-08-12T09:59:54;95683.41;;;26.44;60.69
69171;BME280;56279;47.902;12.308;2023-08-12T10:01:58;95693.13;;;26.48;59.84
69171;BME280;56279;47.902;12.308;2023-08-12T10:03:59;95689.66;;;26.51;59.85
69171;BME280;56279;47.902;12.308;2023-08-12T10:06:01;95686.19;;;26.51;59.13
69171;BME280;56279;47.902;12.308;2023-08-12T10:08:04;95683.50;;;26.51;58.15
69171;BME280;56279;47.902;12.308;2023-08-12T10:10:06;95684.63;;;26.50;58.51
69171;BME280;56279;47.902;12.308;2023-08-12T10:12:08;95686.94;;;26.48;59.89
69171;BME280;56279;47.902;12.308;2023-08-12T10:14:10;95681.06;;;26.42;59.87
69171;BME280;56279;47.902;12.308;2023-08-12T10:16:13;95684.16;;;26.41;58.15
69171;BME280;56279;47.902;12.308;2023-08-12T10:18:15;95682.56;;;26.40;57.65
69171;BME280;56279;47.902;12.308;2023-08-12T10:20:21;95678.75;;;26.44;56.51
69171;BME280;56279;47.902;12.308;2023-08-12T10:22:26;95683.84;;;26.49;55.20
69171;BME280;56279;47.902;12.308;2023-08-12T10:24:28;95680.38;;;26.49;55.25
69171;BME280;56279;47.902;12.308;2023-08-12T10:26:32;95676.88;;;26.48;54.95
69171;BME280;56279;47.902;12.308;2023-08-12T10:28:34;95674.22;;;26.52;55.45
69171;BME280;56279;47.902;12.308;2023-08-12T10:30:39;95678.16;;;26.58;55.53
69171;BME280;56279;47.902;12.308;2023-08-12T10:32:41;95679.38;;;26.64;56.65
69171;BME280;56279;47.902;12.308;2023-08-12T10:34:43;95680.25;;;26.71;55.65
69171;BME280;56279;47.902;12.308;2023-08-12T10:36:44;95676.84;;;26.78;56.58
69171;BME280;56279;47.902;12.308;2023-08-12T10:38:45;95679.63;;;26.85;55.05
69171;BME280;56279;47.902;12.308;2023-08-12T10:40:47;95681.22;;;26.90;55.33
69171;BME280;56279;47.902;12.308;2023-08-12T10:42:50;95680.09;;;26.94;55.01